Time;durP1;ratioP1;P1;durP2;ratioP2;P2;SDS_P1;SDS_P2;PMS_P1;PMS_P2;Temp;Humidity;BMP_temperature;BMP_pressure;BME280_temperature;BME280_humidity;BME280_pressure;Samples;Min_cycle;Max_cycle;Signal;HPM_P1;HPM_P2
2023/01/10 00:01:04;;;;;;;3.3;2.7;;;;;;;;;;;;;
2023/01/10 00:03:33;;;;;;;2.7;2.3;;;;;;;;;;;;;
2023/01/10 00:05:58;;;;;;;2.5;2.3;;;;;;;;;;;;;
2023/01/10 00:08:27;;;;;;;2.5;1.9;;;;;;;;;;;;;
2023/01/10 00:10:52;;;;;;;2.1;1.6;;;;;;;;;;;;;
2023/01/10 00:13:23;;;;;;;3;2.1;;;;;;;;;;;;;
2023/01/10 00:15:51;;;;;;;2;1.9;;;;;;;;;;;;;
2023/01/10 00:18:21;;;;;;;1.7;1.6;;;;;;;;;;;;;
2023/01/10 00:20:50;;;;;;;3.6;2.2;;;;;;;;;;;;;
2023/01/10 00:23:19;;;;;;;2.5;2;;;;;;;;;;;;;
2023/01/10 00:25:50;;;;;;;3.1;2.3;;;;;;;;;;;;;
2023/01/10 00:28:18;;;;;;;3.5;1.9;;;;;;;;;;;;;
2023/01/10 00:30:41;;;;;;;2.4;2.2;;;;;;;;;;;;;
2023/01/10 00:33:16;;;;;;;2.4;2.2;;;;;;;;;;;;;
2023/01/10 00:35:35;;;;;;;3.1;2.3;;;;;;;;;;;;;
2023/01/10 00:38:04;;;;;;;2.3;1.8;;;;;;;;;;;;;
2023/01/10 00:40:26;;;;;;;3.3;2;;;;;;;;;;;;;
2023/01/10 00:45:18;;;;;;;2.6;1.9;;;;;;;;;;;;;
2023/01/10 00:47:43;;;;;;;1.8;1.7;;;;;;;;;;;;;
2023/01/10 00:50:09;;;;;;;1.9;1.8;;;;;;;;;;;;;
2023/01/10 00:52:34;;;;;;;2.7;1.8;;;;;;;;;;;;;
2023/01/10 00:54:59;;;;;;;1.9;1.8;;;;;;;;;;;;;
2023/01/10 00:57:27;;;;;;;1.5;1.4;;;;;;;;;;;;;
2023/01/10 00:59:52;;;;;;;1.5;1.4;;;;;;;;;;;;;
2023/01/10 01:02:17;;;;;;;1.6;1.5;;;;;;;;;;;;;
2023/01/10 01:04:42;;;;;;;1.9;1.4;;;;;;;;;;;;;
2023/01/10 01:07:07;;;;;;;1.6;1.5;;;;;;;;;;;;;
2023/01/10 01:09:32;;;;;;;2.1;1.9;;;;;;;;;;;;;
2023/01/10 01:11:58;;;;;;;2.2;1.9;;;;;;;;;;;;;
2023/01/10 01:14:42;;;;;;;1.9;1.7;;;;;;;;;;;;;
2023/01/10 01:16:49;;;;;;;2.6;1.8;;;;;;;;;;;;;
2023/01/10 01:19:14;;;;;;;2;1.8;;;;;;;;;;;;;
2023/01/10 01:21:40;;;;;;;2.6;2.3;;;;;;;;;;;;;
2023/01/10 01:24:05;;;;;;;3.2;2.5;;;;;;;;;;;;;
2023/01/10 01:26:34;;;;;;;4.7;3.2;;;;;;;;;;;;;
2023/01/10 01:28:57;;;;;;;3.5;2.9;;;;;;;;;;;;;
2023/01/10 01:31:24;;;;;;;3.8;3.4;;;;;;;;;;;;;
2023/01/10 01:33:50;;;;;;;3.4;3;;;;;;;;;;;;;
2023/01/10 01:36:15;;;;;;;4.5;3.3;;;;;;;;;;;;;
2023/01/10 01:38:40;;;;;;;3.4;3.1;;;;;;;;;;;;;
2023/01/10 01:41:55;;;;;;;3.4;2.6;;;;;;;;;;;;;
2023/01/10 01:43:33;;;;;;;2.9;2.2;;;;;;;;;;;;;
2023/01/10 01:45:58;;;;;;;2.5;2.2;;;;;;;;;;;;;
2023/01/10 01:48:23;;;;;;;2;1.5;;;;;;;;;;;;;
2023/01/10 01:50:50;;;;;;;1.6;1.5;;;;;;;;;;;;;
2023/01/10 01:53:15;;;;;;;3.6;1.5;;;;;;;;;;;;;
2023/01/10 01:55:40;;;;;;;1.5;1.4;;;;;;;;;;;;;
2023/01/10 01:58:05;;;;;;;2.4;1.5;;;;;;;;;;;;;
2023/01/10 02:00:34;;;;;;;3.1;1.7;;;;;;;;;;;;;
2023/01/10 02:02:58;;;;;;;1.7;1.6;;;;;;;;;;;;;
2023/01/10 02:05:24;;;;;;;2.1;1.6;;;;;;;;;;;;;
2023/01/10 02:07:49;;;;;;;2.2;1.5;;;;;;;;;;;;;
2023/01/10 02:10:14;;;;;;;1.5;1.4;;;;;;;;;;;;;
2023/01/10 02:12:39;;;;;;;1.5;1.4;;;;;;;;;;;;;
2023/01/10 02:15:05;;;;;;;1.7;1.6;;;;;;;;;;;;;
2023/01/10 02:17:30;;;;;;;2.8;1.8;;;;;;;;;;;;;
2023/01/10 02:19:57;;;;;;;1;1;;;;;;;;;;;;;
2023/01/10 02:22:22;;;;;;;1.3;1.2;;;;;;;;;;;;;
2023/01/10 02:24:47;;;;;;;0.9;0.9;;;;;;;;;;;;;
2023/01/10 02:27:59;;;;;;;1.2;1;;;;;;;;;;;;;
2023/01/10 02:30:24;;;;;;;0.7;0.7;;;;;;;;;;;;;
2023/01/10 02:32:49;;;;;;;0.9;0.9;;;;;;;;;;;;;
2023/01/10 02:35:15;;;;;;;1.1;0.7;;;;;;;;;;;;;
2023/01/10 02:37:44;;;;;;;0.9;0.9;;;;;;;;;;;;;
2023/01/10 02:40:09;;;;;;;0.7;0.7;;;;;;;;;;;;;
2023/01/10 02:42:35;;;;;;;1.5;0.8;;;;;;;;;;;;;
2023/01/10 02:45:00;;;;;;;0.7;0.7;;;;;;;;;;;;;
2023/01/10 02:47:26;;;;;;;0.9;0.9;;;;;;;;;;;;;
2023/01/10 02:49:50;;;;;;;1.1;0.9;;;;;;;;;;;;;
2023/01/10 02:52:15;;;;;;;0.8;0.8;;;;;;;;;;;;;
2023/01/10 02:54:40;;;;;;;0.9;0.9;;;;;;;;;;;;;
2023/01/10 02:57:07;;;;;;;1.1;1;;;;;;;;;;;;;
2023/01/10 02:59:31;;;;;;;1;0.9;;;;;;;;;;;;;
2023/01/10 03:01:56;;;;;;;1.1;1;;;;;;;;;;;;;
2023/01/10 03:04:21;;;;;;;1.3;1.2;;;;;;;;;;;;;
2023/01/10 03:06:49;;;;;;;1.6;1.5;;;;;;;;;;;;;
2023/01/10 03:09:14;;;;;;;2.1;1.9;;;;;;;;;;;;;
2023/01/10 03:11:43;;;;;;;2.8;1.4;;;;;;;;;;;;;
2023/01/10 03:14:04;;;;;;;2.3;1.3;;;;;;;;;;;;;
2023/01/10 03:16:32;;;;;;;2.1;1.9;;;;;;;;;;;;;
2023/01/10 03:18:57;;;;;;;2;1.8;;;;;;;;;;;;;
2023/01/10 03:21:22;;;;;;;2.2;2;;;;;;;;;;;;;
2023/01/10 03:23:47;;;;;;;2.4;1.8;;;;;;;;;;;;;
2023/01/10 03:26:13;;;;;;;1.9;1.8;;;;;;;;;;;;;
2023/01/10 03:28:39;;;;;;;1.5;1.4;;;;;;;;;;;;;
2023/01/10 03:31:04;;;;;;;2.5;2.3;;;;;;;;;;;;;
2023/01/10 03:33:30;;;;;;;2.7;2.3;;;;;;;;;;;;;
2023/01/10 03:35:56;;;;;;;2.5;2;;;;;;;;;;;;;
2023/01/10 03:38:22;;;;;;;3.8;2.4;;;;;;;;;;;;;
2023/01/10 03:40:47;;;;;;;1.7;1.6;;;;;;;;;;;;;
2023/01/10 03:45:41;;;;;;;2.5;2;;;;;;;;;;;;;
2023/01/10 03:48:06;;;;;;;0.8;0.8;;;;;;;;;;;;;
2023/01/10 03:50:31;;;;;;;2.2;2;;;;;;;;;;;;;
2023/01/10 03:52:57;;;;;;;1.7;1.6;;;;;;;;;;;;;
2023/01/10 03:55:22;;;;;;;1.3;1.2;;;;;;;;;;;;;
2023/01/10 03:57:47;;;;;;;1.4;1.2;;;;;;;;;;;;;
2023/01/10 04:02:34;;;;;;;2.6;2.1;;;;;;;3.23;97.46387;936.2272;;;;
2023/01/10 04:04:59;;;;;;;1.3;1.2;;;;;;;3.26;97.06641;936.2274;;;;
2023/01/10 04:07:30;;;;;;;1.5;1.4;;;;;;;3.2;97.41309;936.4255;;;;
2023/01/10 04:10:00;;;;;;;1.7;1.6;;;;;;;3.29;97.35547;936.4929;;;;
2023/01/10 04:12:25;;;;;;;1.3;1.2;;;;;;;3.38;97.07227;936.2889;;;;
2023/01/10 04:14:56;;;;;;;1.2;1.1;;;;;;;3.49;96.5127;936.4792;;;;
2023/01/10 04:17:27;;;;;;;3.1;1.1;;;;;;;3.48;96.29785;936.5279;;;;
2023/01/10 04:19:56;;;;;;;1.3;1;;;;;;;3.5;96.40332;936.5458;;;;
2023/01/10 04:22:21;;;;;;;1;0.8;;;;;;;3.56;96.25977;936.495;;;;
2023/01/10 04:26:07;;;;;;;0.8;0.5;;;;;;;3.47;96.87988;936.6291;;;;
2023/01/10 04:28:33;;;;;;;0.4;0.4;;;;;;;3.45;96.49414;936.7275;;;;
2023/01/10 04:31:02;;;;;;;0.5;0.5;;;;;;;3.54;96.35742;936.6887;;;;
2023/01/10 04:33:27;;;;;;;0.8;0.7;;;;;;;3.61;96.02539;936.7536;;;;
2023/01/10 04:35:57;;;;;;;1.1;0.6;;;;;;;3.61;95.5957;936.8205;;;;
2023/01/10 04:38:26;;;;;;;1.1;1;;;;;;;3.53;96.13965;936.7805;;;;
2023/01/10 04:40:51;;;;;;;2.1;1.8;;;;;;;3.51;96.51758;936.8499;;;;
2023/01/10 04:43:18;;;;;;;2.3;1.6;;;;;;;3.37;96.19434;936.8024;;;;
2023/01/10 04:45:43;;;;;;;2.1;1.6;;;;;;;3.53;95.84766;936.8033;;;;
2023/01/10 04:48:13;;;;;;;2;1.5;;;;;;;3.67;95.3291;936.9941;;;;
2023/01/10 04:50:38;;;;;;;2.4;1.2;;;;;;;3.66;94.95703;937.0126;;;;
2023/01/10 04:53:03;;;;;;;1.2;1.1;;;;;;;3.75;95.22363;937.0258;;;;
2023/01/10 04:55:32;;;;;;;1.1;1;;;;;;;3.84;94.69336;936.9991;;;;
2023/01/10 04:57:59;;;;;;;1.1;1;;;;;;;3.77;94.71094;937.1185;;;;
2023/01/10 05:00:24;;;;;;;1.3;1.1;;;;;;;3.6;95.39355;937.1804;;;;
2023/01/10 05:02:56;;;;;;;1.2;1.1;;;;;;;3.59;95.62793;937.3399;;;;
2023/01/10 05:05:27;;;;;;;1.5;0.9;;;;;;;3.55;95.89844;937.3329;;;;
2023/01/10 05:07:51;;;;;;;0.6;0.6;;;;;;;3.54;95.37988;937.4453;;;;
2023/01/10 05:10:19;;;;;;;0.6;0.6;;;;;;;3.45;94.57324;937.4869;;;;
2023/01/10 05:12:44;;;;;;;0.9;0.3;;;;;;;3.54;94.25684;937.5452;;;;
2023/01/10 05:15:11;;;;;;;0.4;0.4;;;;;;;3.54;94.08789;937.587;;;;
2023/01/10 05:17:36;;;;;;;0.6;0.3;;;;;;;3.38;93.74902;937.6055;;;;
2023/01/10 05:20:03;;;;;;;0.7;0.7;;;;;;;3.43;94.03027;937.6234;;;;
2023/01/10 05:22:28;;;;;;;0.3;0.3;;;;;;;3.59;93.83789;937.5923;;;;
2023/01/10 05:24:56;;;;;;;0.9;0.6;;;;;;;3.41;93.56348;937.7241;;;;
2023/01/10 05:27:21;;;;;;;1;0.9;;;;;;;3.24;94.87305;937.8097;;;;
2023/01/10 05:29:48;;;;;;;1.7;1.6;;;;;;;3.2;94.80859;937.8851;;;;
2023/01/10 05:32:13;;;;;;;2.1;2;;;;;;;3.25;95.23438;937.9802;;;;
2023/01/10 05:34:38;;;;;;;2;1.8;;;;;;;3.22;95.26172;937.9302;;;;
2023/01/10 05:37:06;;;;;;;1.5;1.4;;;;;;;3.23;95.16309;938.0172;;;;
2023/01/10 05:39:31;;;;;;;2.2;2;;;;;;;3.32;94.97168;937.9819;;;;
2023/01/10 05:41:59;;;;;;;1.2;1.2;;;;;;;3.53;94.74707;938.0168;;;;
2023/01/10 05:48:04;;;;;;;11.5;8.6;;;;;;;3.57;94.69824;938.0751;;;;
2023/01/10 05:50:29;;;;;;;2.5;1.7;;;;;;;3.5;94.50488;938.079;;;;
2023/01/10 05:53:02;;;;;;;2.3;2;;;;;;;3.6;94.40332;938.191;;;;
2023/01/10 05:55:23;;;;;;;3.8;1.1;;;;;;;3.52;94.92676;938.2932;;;;
2023/01/10 05:57:55;;;;;;;1.2;1.1;;;;;;;3.43;95.69043;938.4031;;;;
2023/01/10 06:00:28;;;;;;;1.5;1.4;;;;;;;3.4;96.29102;938.4443;;;;
2023/01/10 06:03:00;;;;;;;2.1;1.4;;;;;;;3.29;95.97461;938.4277;;;;
2023/01/10 06:05:37;;;;;;;1.6;1.4;;;;;;;3.36;96.29199;938.4924;;;;
2023/01/10 06:08:02;;;;;;;2;1.6;;;;;;;3.35;96.67285;938.6142;;;;
2023/01/10 06:10:29;;;;;;;2.9;2.1;;;;;;;3.35;96.64844;938.6479;;;;
2023/01/10 06:12:58;;;;;;;2.8;2.5;;;;;;;3.42;96.48535;938.7081;;;;
2023/01/10 06:15:23;;;;;;;2.5;2.2;;;;;;;3.26;97.05664;938.5636;;;;
2023/01/10 06:17:54;;;;;;;1.5;1.1;;;;;;;3.2;97.22168;938.7559;;;;
2023/01/10 06:20:23;;;;;;;1.1;0.9;;;;;;;3.35;96.44629;938.7833;;;;
2023/01/10 06:22:48;;;;;;;2;1.1;;;;;;;3.43;95.95996;938.8596;;;;
2023/01/10 06:25:18;;;;;;;0.8;0.5;;;;;;;3.31;96.12402;938.8652;;;;
2023/01/10 06:27:43;;;;;;;0.6;0.6;;;;;;;3.35;96.28027;939.025;;;;
2023/01/10 06:30:15;;;;;;;1.7;1.6;;;;;;;3.46;95.7998;939.1245;;;;
2023/01/10 06:32:45;;;;;;;6.1;5.5;;;;;;;3.47;95.62012;939.1995;;;;
2023/01/10 06:35:16;;;;;;;4;3;;;;;;;3.47;95.21582;939.0955;;;;
2023/01/10 06:37:41;;;;;;;6.2;4.1;;;;;;;3.43;95.23145;939.2431;;;;
2023/01/10 06:40:09;;;;;;;4.2;3.7;;;;;;;3.36;95.75293;939.3918;;;;
2023/01/10 06:42:34;;;;;;;7.1;5.9;;;;;;;3.2;96.87402;939.4246;;;;
2023/01/10 06:45:06;;;;;;;1.4;0.8;;;;;;;3.2;96.8291;939.5178;;;;
2023/01/10 06:47:32;;;;;;;1.4;1;;;;;;;3.28;96.72461;939.5959;;;;
2023/01/10 06:52:22;;;;;;;0.7;0.7;;;;;;;3.47;95.56738;939.7436;;;;
2023/01/10 06:54:51;;;;;;;1.6;1.4;;;;;;;3.54;94.71484;939.6987;;;;
2023/01/10 06:57:14;;;;;;;0.9;0.9;;;;;;;3.39;94.40234;939.7888;;;;
2023/01/10 06:59:41;;;;;;;4.2;1.9;;;;;;;3.46;94.62012;939.7826;;;;
2023/01/10 07:02:07;;;;;;;3.9;1.5;;;;;;;3.47;94.59961;939.8993;;;;
2023/01/10 07:04:35;;;;;;;5.3;3.2;;;;;;;3.55;94.43652;939.9699;;;;
2023/01/10 07:07:00;;;;;;;5.4;4.3;;;;;;;3.46;94.53027;940.0959;;;;
2023/01/10 07:09:27;;;;;;;3.2;2.8;;;;;;;3.16;96.03516;940.111;;;;
2023/01/10 07:11:52;;;;;;;4.3;3.4;;;;;;;3.08;96.57813;940.137;;;;
2023/01/10 07:14:20;;;;;;;8.5;5.6;;;;;;;3.2;95.99902;940.1281;;;;
2023/01/10 07:16:44;;;;;;;4.5;3.4;;;;;;;3.19;96.03223;940.2311;;;;
2023/01/10 07:19:16;;;;;;;17.5;11.1;;;;;;;3.12;96.63086;940.3153;;;;
2023/01/10 07:21:45;;;;;;;3.7;2.7;;;;;;;3.05;97.36816;940.349;;;;
2023/01/10 07:24:16;;;;;;;4.2;2.9;;;;;;;3.17;96.87891;940.4175;;;;
2023/01/10 07:26:45;;;;;;;4.5;3.4;;;;;;;3.02;97.34863;940.5237;;;;
2023/01/10 07:29:10;;;;;;;0.8;0.8;;;;;;;3.08;97.68652;940.5511;;;;
2023/01/10 07:31:37;;;;;;;1.9;1;;;;;;;3.18;97.14844;940.6308;;;;
2023/01/10 07:34:03;;;;;;;0.8;0.7;;;;;;;3.17;96.72168;940.6738;;;;
2023/01/10 07:36:34;;;;;;;1.3;0.8;;;;;;;3.13;97.0166;940.7164;;;;
2023/01/10 07:38:56;;;;;;;0.6;0.6;;;;;;;3.14;97.15332;940.7458;;;;
2023/01/10 07:41:24;;;;;;;0.7;0.5;;;;;;;3.23;96.02734;940.7748;;;;
2023/01/10 07:43:49;;;;;;;0.4;0.4;;;;;;;3.15;96.41309;940.8309;;;;
2023/01/10 07:46:14;;;;;;;3.2;1.4;;;;;;;3.13;97.17188;940.9978;;;;
2023/01/10 07:48:43;;;;;;;0.6;0.6;;;;;;;3.11;97.42578;940.9152;;;;
2023/01/10 07:51:07;;;;;;;6.7;4.2;;;;;;;3.16;96.9541;940.9078;;;;
2023/01/10 07:53:35;;;;;;;2.5;1.8;;;;;;;3.25;97.06445;941.003;;;;
2023/01/10 07:56:01;;;;;;;1.1;1;;;;;;;3.35;96.69531;940.9972;;;;
2023/01/10 07:58:29;;;;;;;1.5;1.3;;;;;;;3.49;95.83887;941.14;;;;
2023/01/10 08:00:54;;;;;;;1.1;1;;;;;;;3.5;95.45898;941.1089;;;;
2023/01/10 08:03:24;;;;;;;0.6;0.6;;;;;;;3.54;94.69238;941.1771;;;;
2023/01/10 08:05:48;;;;;;;0.4;0.4;;;;;;;3.63;93.81348;941.2128;;;;
2023/01/10 08:08:17;;;;;;;0.4;0.3;;;;;;;3.66;92.7207;941.2864;;;;
2023/01/10 08:10:42;;;;;;;0.3;0.3;;;;;;;3.77;92.50977;941.3633;;;;
2023/01/10 08:13:07;;;;;;;0.3;0.2;;;;;;;3.87;91.9541;941.3128;;;;
2023/01/10 08:15:42;;;;;;;0.3;0.3;;;;;;;3.84;90.90527;941.319;;;;
2023/01/10 08:18:07;;;;;;;0.4;0.4;;;;;;;3.88;90.58887;941.4199;;;;
2023/01/10 08:20:38;;;;;;;0.4;0.4;;;;;;;3.92;90.23633;941.4758;;;;
2023/01/10 08:23:09;;;;;;;1.1;0.9;;;;;;;4.05;90.1416;941.5135;;;;
2023/01/10 08:25:36;;;;;;;0.5;0.5;;;;;;;4.12;89.71484;941.5372;;;;
2023/01/10 08:28:01;;;;;;;0.8;0.5;;;;;;;4.18;89.89648;941.6206;;;;
2023/01/10 08:30:29;;;;;;;0.6;0.5;;;;;;;4.17;90.07422;941.6086;;;;
2023/01/10 08:32:54;;;;;;;1.4;1.1;;;;;;;4.04;90.23926;941.6792;;;;
2023/01/10 08:35:25;;;;;;;5;4;;;;;;;4.07;90.9082;941.6181;;;;
2023/01/10 08:37:55;;;;;;;1.3;0.9;;;;;;;4.03;91.49512;941.7464;;;;
2023/01/10 08:40:23;;;;;;;2.1;1.9;;;;;;;4.01;91.91992;941.7764;;;;
2023/01/10 08:42:48;;;;;;;10.8;9.6;;;;;;;4.02;92.5166;941.8257;;;;
2023/01/10 08:45:17;;;;;;;1.8;1.7;;;;;;;3.87;93.43848;941.9517;;;;
2023/01/10 08:47:48;;;;;;;1.1;0.9;;;;;;;3.73;93.66895;941.9442;;;;
2023/01/10 08:50:19;;;;;;;1.2;0.8;;;;;;;3.59;94.2666;941.9651;;;;
2023/01/10 08:52:49;;;;;;;0.7;0.7;;;;;;;3.59;94.44824;942.0101;;;;
2023/01/10 08:55:14;;;;;;;0.8;0.6;;;;;;;3.56;94.58398;942.1188;;;;
2023/01/10 08:57:40;;;;;;;1.2;0.5;;;;;;;3.63;94.80273;942.0787;;;;
2023/01/10 09:00:07;;;;;;;0.8;0.7;;;;;;;3.5;95.02148;942.1323;;;;
2023/01/10 09:02:36;;;;;;;1.2;0.6;;;;;;;3.48;95.84863;942.1564;;;;
2023/01/10 09:05:05;;;;;;;0.6;0.5;;;;;;;3.58;96.16309;942.2506;;;;
2023/01/10 09:07:30;;;;;;;0.3;0.3;;;;;;;3.57;95.19434;942.2541;;;;
2023/01/10 09:10:00;;;;;;;0.4;0.4;;;;;;;3.48;95.81445;942.3752;;;;
2023/01/10 09:14:50;;;;;;;0.6;0.5;;;;;;;3.74;95.69434;942.4889;;;;
2023/01/10 09:17:22;;;;;;;0.4;0.3;;;;;;;3.76;95.1582;942.5084;;;;
2023/01/10 09:19:55;;;;;;;0.8;0.8;;;;;;;3.77;95.00293;942.5611;;;;
2023/01/10 09:22:23;;;;;;;0.7;0.7;;;;;;;3.91;94.69824;942.6287;;;;
2023/01/10 09:24:49;;;;;;;0.4;0.4;;;;;;;3.9;94.3252;942.6094;;;;
2023/01/10 09:27:19;;;;;;;3.5;2;;;;;;;3.83;95.20801;942.6661;;;;
2023/01/10 09:29:45;;;;;;;8.6;5.9;;;;;;;3.8;94.41309;942.6717;;;;
2023/01/10 09:32:10;;;;;;;6;3.7;;;;;;;3.85;94.68457;942.7788;;;;
2023/01/10 09:34:35;;;;;;;2.4;2.2;;;;;;;3.97;94.69922;942.8334;;;;
2023/01/10 09:37:00;;;;;;;30.8;15.8;;;;;;;3.91;94.55176;942.8248;;;;
2023/01/10 09:39:27;;;;;;;7;4.4;;;;;;;3.83;94.32031;942.7703;;;;
2023/01/10 09:41:57;;;;;;;31.1;16.4;;;;;;;3.8;94.47168;942.9498;;;;
2023/01/10 09:44:25;;;;;;;19.4;11.1;;;;;;;3.92;94.2168;942.9947;;;;
2023/01/10 09:46:50;;;;;;;12.5;6;;;;;;;4.03;93.98047;943.0528;;;;
2023/01/10 09:49:19;;;;;;;4.3;2.4;;;;;;;4.2;93.52246;943.0818;;;;
2023/01/10 09:51:47;;;;;;;2;1.6;;;;;;;4.2;92.08496;943.0481;;;;
2023/01/10 09:54:12;;;;;;;2;1.7;;;;;;;4.28;92.34961;943.0486;;;;
2023/01/10 09:56:37;;;;;;;1.7;1.4;;;;;;;4.5;92.4082;943.1317;;;;
2023/01/10 09:59:03;;;;;;;0.9;0.9;;;;;;;4.68;90.80078;943.0748;;;;
2023/01/10 10:01:28;;;;;;;3.1;1.9;;;;;;;4.63;88.50488;942.9952;;;;
2023/01/10 10:04:02;;;;;;;2.6;1.3;;;;;;;4.85;87.52637;943.0081;;;;
2023/01/10 10:06:27;;;;;;;3.4;2;;;;;;;4.77;86.29297;943.0078;;;;
2023/01/10 10:08:55;;;;;;;10.1;7.1;;;;;;;4.73;87.94043;942.9753;;;;
2023/01/10 10:11:20;;;;;;;27.5;17.7;;;;;;;4.87;90.00977;943.0442;;;;
2023/01/10 10:13:46;;;;;;;14.7;11.1;;;;;;;5.16;89.99121;942.9797;;;;
2023/01/10 10:16:10;;;;;;;27.6;16.2;;;;;;;5.27;88.69629;942.9889;;;;
2023/01/10 10:18:36;;;;;;;15;8.5;;;;;;;5.66;86.29199;942.9133;;;;
2023/01/10 10:21:02;;;;;;;4.4;3.1;;;;;;;5.89;83.30078;942.9429;;;;
2023/01/10 10:23:27;;;;;;;1.3;0.4;;;;;;;5.61;77.60254;942.9557;;;;
2023/01/10 10:25:54;;;;;;;1.1;0.7;;;;;;;5.32;77.77539;942.8707;;;;
2023/01/10 10:28:19;;;;;;;1.2;1;;;;;;;5.63;78.32813;942.8672;;;;
2023/01/10 10:30:45;;;;;;;4.6;4.1;;;;;;;5.99;83.11523;942.9393;;;;
2023/01/10 10:33:10;;;;;;;2.4;1.4;;;;;;;6.16;81.15918;942.9406;;;;
2023/01/10 10:35:35;;;;;;;0.9;0.9;;;;;;;6.53;77.88281;942.9116;;;;
2023/01/10 10:38:00;;;;;;;1.4;0.9;;;;;;;6.9;76.33105;942.812;;;;
2023/01/10 10:40:34;;;;;;;2.7;0.9;;;;;;;6.55;72.12988;942.8055;;;;
2023/01/10 10:43:00;;;;;;;1.2;0.8;;;;;;;6.47;73.5752;942.6146;;;;
2023/01/10 10:45:27;;;;;;;3.3;1.6;;;;;;;6.51;71.66797;942.4622;;;;
2023/01/10 10:47:52;;;;;;;7.7;4.7;;;;;;;6.63;75.9209;942.4964;;;;
2023/01/10 10:50:17;;;;;;;1.8;1;;;;;;;6.73;73.3584;942.512;;;;
2023/01/10 10:52:44;;;;;;;7.1;3.9;;;;;;;6.62;73.07715;942.3709;;;;
2023/01/10 10:55:17;;;;;;;1.4;1;;;;;;;6.68;73.80176;942.3791;;;;
2023/01/10 10:57:44;;;;;;;1.8;1.2;;;;;;;6.75;74.57227;942.5397;;;;
2023/01/10 11:00:09;;;;;;;11.4;6.3;;;;;;;6.57;74.95898;942.6239;;;;
2023/01/10 11:02:35;;;;;;;3.6;2.1;;;;;;;6.8;75.7793;942.6747;;;;
2023/01/10 11:05:00;;;;;;;7.3;3.9;;;;;;;6.95;72.3418;942.6283;;;;
2023/01/10 11:07:28;;;;;;;4;2;;;;;;;7.23;72.48926;942.6844;;;;
2023/01/10 11:10:12;;;;;;;4.2;1.1;;;;;;;7.3;69.69336;942.6683;;;;
2023/01/10 11:12:27;;;;;;;2.5;1.6;;;;;;;7.42;70.39258;942.8035;;;;
2023/01/10 11:14:53;;;;;;;2.9;1.2;;;;;;;7.52;69.61523;942.7437;;;;
2023/01/10 11:17:18;;;;;;;1.4;0.7;;;;;;;7.53;67.88184;942.7781;;;;
2023/01/10 11:19:47;;;;;;;2;1.1;;;;;;;7.41;68.94141;942.8613;;;;
2023/01/10 11:22:14;;;;;;;1.2;0.8;;;;;;;7.41;71.38965;942.8723;;;;
2023/01/10 11:24:39;;;;;;;4.8;3.1;;;;;;;7.37;72.98047;942.7695;;;;
2023/01/10 11:27:11;;;;;;;4.4;2.2;;;;;;;7.08;72.16113;942.7703;;;;
2023/01/10 11:29:36;;;;;;;1.8;0.9;;;;;;;7.36;70.67676;942.7294;;;;
2023/01/10 11:32:04;;;;;;;2;1;;;;;;;7.23;69.95313;942.74;;;;
2023/01/10 11:34:30;;;;;;;0.6;0.6;;;;;;;7.21;68.45508;942.7584;;;;
2023/01/10 11:36:55;;;;;;;1.5;0.6;;;;;;;7.24;68.92383;942.7617;;;;
2023/01/10 11:39:20;;;;;;;1.5;0.8;;;;;;;7.12;67.3418;942.7667;;;;
2023/01/10 11:41:51;;;;;;;1.2;0.7;;;;;;;7.14;68.39941;942.8259;;;;
2023/01/10 11:44:14;;;;;;;1.2;0.7;;;;;;;7.22;68.9209;942.8103;;;;
2023/01/10 11:46:39;;;;;;;2.3;1.3;;;;;;;7.11;73.27539;942.8042;;;;
2023/01/10 11:49:04;;;;;;;3.6;1.9;;;;;;;6.82;74.74316;942.892;;;;
2023/01/10 11:51:30;;;;;;;2.8;1.4;;;;;;;6.76;73.87207;942.8603;;;;
2023/01/10 11:53:59;;;;;;;1.4;0.7;;;;;;;6.16;68.53516;942.7896;;;;
2023/01/10 11:56:25;;;;;;;1;0.8;;;;;;;5.86;68.84961;942.7073;;;;
2023/01/10 11:58:51;;;;;;;1.3;0.8;;;;;;;6.39;71.37695;942.7152;;;;
2023/01/10 12:01:17;;;;;;;2.1;0.9;;;;;;;6.73;65.51465;942.6847;;;;
2023/01/10 12:03:42;;;;;;;1.6;1.1;;;;;;;6.92;63.98047;942.6122;;;;
2023/01/10 12:06:12;;;;;;;1;0.8;;;;;;;6.99;69.36035;942.6136;;;;
2023/01/10 12:08:43;;;;;;;3.7;1.6;;;;;;;7.15;66.41699;942.5647;;;;
2023/01/10 12:11:08;;;;;;;1.3;0.9;;;;;;;7.15;66.46191;942.6066;;;;
2023/01/10 12:13:38;;;;;;;1.4;0.8;;;;;;;7.39;66.97559;942.5956;;;;
2023/01/10 12:16:06;;;;;;;2.2;0.9;;;;;;;7.37;66.05371;942.553;;;;
2023/01/10 12:18:31;;;;;;;1.9;0.9;;;;;;;7.3;63.75488;942.509;;;;
2023/01/10 12:20:59;;;;;;;2.5;1;;;;;;;7.14;65.125;942.5922;;;;
2023/01/10 12:23:26;;;;;;;1.9;0.7;;;;;;;7.2;63.27539;942.5908;;;;
2023/01/10 12:25:58;;;;;;;1.2;1;;;;;;;7.21;63.6377;942.5774;;;;
2023/01/10 12:28:26;;;;;;;3.1;1.1;;;;;;;7.02;63.37402;942.5665;;;;
2023/01/10 12:30:52;;;;;;;1.5;0.9;;;;;;;7.21;65.35059;942.6183;;;;
2023/01/10 12:33:20;;;;;;;1.6;0.6;;;;;;;7.16;64.86719;942.6412;;;;
2023/01/10 12:35:47;;;;;;;2;1.1;;;;;;;7.47;64.75488;942.6473;;;;
2023/01/10 12:38:12;;;;;;;1.1;0.8;;;;;;;7.44;63.36719;942.6385;;;;
2023/01/10 12:40:43;;;;;;;1.7;0.8;;;;;;;7.9;65.69336;942.6103;;;;
2023/01/10 12:45:35;;;;;;;1.9;0.9;;;;;;;7.99;61.48438;942.6261;;;;
2023/01/10 12:48:00;;;;;;;3.4;0.7;;;;;;;7.56;61.50293;942.5991;;;;
2023/01/10 12:50:26;;;;;;;1.9;0.9;;;;;;;7.53;62.83594;942.6245;;;;
2023/01/10 12:52:51;;;;;;;1.5;0.8;;;;;;;7.68;60.9873;942.6604;;;;
2023/01/10 12:55:19;;;;;;;1.5;0.8;;;;;;;7.9;61.9707;942.6912;;;;
2023/01/10 12:57:45;;;;;;;2.5;1;;;;;;;7.85;61.53418;942.6116;;;;
2023/01/10 13:00:19;;;;;;;0.9;0.7;;;;;;;7.83;62.4707;942.6386;;;;
2023/01/10 13:02:48;;;;;;;1.6;0.8;;;;;;;7.89;61.34668;942.6094;;;;
2023/01/10 13:05:16;;;;;;;1.4;1;;;;;;;7.49;60.62012;942.6771;;;;
2023/01/10 13:07:41;;;;;;;1.6;0.9;;;;;;;7.16;65.39844;942.7289;;;;
2023/01/10 13:10:14;;;;;;;1.3;0.7;;;;;;;7.57;63.72754;942.7753;;;;
2023/01/10 13:12:37;;;;;;;1;0.7;;;;;;;7.59;63.43457;942.6713;;;;
2023/01/10 13:15:02;;;;;;;1.9;0.8;;;;;;;7.83;61.70117;942.7188;;;;
2023/01/10 13:17:27;;;;;;;1.4;0.7;;;;;;;8.14;61.9834;942.8064;;;;
2023/01/10 13:19:52;;;;;;;1.2;0.8;;;;;;;8.32;61.46387;942.824;;;;
2023/01/10 13:22:17;;;;;;;2.8;0.9;;;;;;;8.54;59.13281;942.808;;;;
2023/01/10 13:24:43;;;;;;;1.3;0.9;;;;;;;8.29;58.0752;942.8153;;;;
2023/01/10 13:27:10;;;;;;;1.7;0.9;;;;;;;8.32;58.87402;942.8471;;;;
2023/01/10 13:29:37;;;;;;;2.1;0.8;;;;;;;8.33;58.35449;942.8267;;;;
2023/01/10 13:32:02;;;;;;;3.6;1.1;;;;;;;8.32;60.24902;942.9025;;;;
2023/01/10 13:34:28;;;;;;;2.4;1.4;;;;;;;8.02;62.05566;942.8105;;;;
2023/01/10 13:36:53;;;;;;;2;0.9;;;;;;;7.46;60.45605;942.7824;;;;
2023/01/10 13:39:18;;;;;;;2.4;1.3;;;;;;;6.71;64.87891;942.8826;;;;
2023/01/10 13:44:08;;;;;;;3;1.1;;;;;;;6.96;65.87891;942.9698;;;;
2023/01/10 13:46:35;;;;;;;2.8;1;;;;;;;6.92;67.40137;943.02;;;;
2023/01/10 13:48:59;;;;;;;1;0.6;;;;;;;7.18;65.25586;942.9925;;;;
2023/01/10 13:51:24;;;;;;;1.1;0.7;;;;;;;7.17;62.20703;942.9472;;;;
2023/01/10 13:53:53;;;;;;;3.1;1.5;;;;;;;6.87;66.53223;942.9813;;;;
2023/01/10 13:56:17;;;;;;;2.6;1.5;;;;;;;6.87;67.31348;942.9922;;;;
2023/01/10 14:03:36;;;;;;;2.3;1.3;;;;;;;7.15;65.41992;942.9425;;;;
2023/01/10 14:06:01;;;;;;;3.6;1.1;;;;;;;7.23;64.42578;943.0055;;;;
2023/01/10 14:08:28;;;;;;;3.4;1.4;;;;;;;7.41;65.20898;943.0295;;;;
2023/01/10 14:10:53;;;;;;;5.3;3.2;;;;;;;7.43;68.60254;943.0399;;;;
2023/01/10 14:13:18;;;;;;;3.2;1.3;;;;;;;6.97;70.65918;943.0192;;;;
2023/01/10 14:15:44;;;;;;;2.3;1.5;;;;;;;6.94;69.77051;943.0308;;;;
2023/01/10 14:18:14;;;;;;;6.6;1.9;;;;;;;6.71;70.83105;943.0441;;;;
2023/01/10 14:20:39;;;;;;;2.2;1.3;;;;;;;6.87;69.21484;943.1182;;;;
2023/01/10 14:23:07;;;;;;;2.3;1.2;;;;;;;6.84;68.45215;942.9677;;;;
2023/01/10 14:25:38;;;;;;;1.6;1.1;;;;;;;6.99;66.77832;942.9587;;;;
2023/01/10 14:28:03;;;;;;;2.6;0.9;;;;;;;7.14;66.2793;942.9674;;;;
2023/01/10 14:30:33;;;;;;;1.7;1.2;;;;;;;6.69;65.39551;942.9666;;;;
2023/01/10 14:32:57;;;;;;;1.8;1.3;;;;;;;6.75;71.12988;942.9692;;;;
2023/01/10 14:35:25;;;;;;;2.8;1.3;;;;;;;6.8;71.71582;942.9178;;;;
2023/01/10 14:37:51;;;;;;;2.3;1.2;;;;;;;6.79;68.98828;942.9303;;;;
2023/01/10 14:40:18;;;;;;;4.1;1.8;;;;;;;6.72;69.64258;942.8614;;;;
2023/01/10 14:42:45;;;;;;;3.3;2.2;;;;;;;6.8;69.48633;942.9612;;;;
2023/01/10 14:45:14;;;;;;;10;4.3;;;;;;;6.84;67.68262;943.0097;;;;
2023/01/10 14:47:40;;;;;;;6;3.6;;;;;;;6.7;68.18066;942.9352;;;;
2023/01/10 14:50:05;;;;;;;4.2;2.5;;;;;;;6.29;69.31445;942.9533;;;;
2023/01/10 14:52:34;;;;;;;3.6;1.6;;;;;;;6.21;69.01855;942.9553;;;;
2023/01/10 14:55:06;;;;;;;2.2;1.4;;;;;;;5.98;69.7373;942.9241;;;;
2023/01/10 14:57:36;;;;;;;2.8;1.2;;;;;;;5.94;68.91992;942.8928;;;;
2023/01/10 15:00:04;;;;;;;4;1.3;;;;;;;5.94;70.03613;942.9252;;;;
2023/01/10 15:02:28;;;;;;;2;1;;;;;;;5.97;70.26855;942.9317;;;;
2023/01/10 15:04:57;;;;;;;3.6;1.4;;;;;;;5.69;71.91602;942.9444;;;;
2023/01/10 15:07:22;;;;;;;2.9;1.6;;;;;;;5.7;72.97656;943.0276;;;;
2023/01/10 15:09:50;;;;;;;3.4;2.2;;;;;;;5.59;71.9668;943.0645;;;;
2023/01/10 15:12:15;;;;;;;2.8;1.6;;;;;;;5.46;72.98242;943.1404;;;;
2023/01/10 15:14:44;;;;;;;2.5;1.4;;;;;;;5.02;75.18359;943.2054;;;;
2023/01/10 15:17:11;;;;;;;3.3;1.9;;;;;;;5;76.02734;943.1163;;;;
2023/01/10 15:19:34;;;;;;;4.2;2.4;;;;;;;5.05;76.23828;943.1666;;;;
2023/01/10 15:22:00;;;;;;;4.1;1.9;;;;;;;4.89;77.24609;943.0994;;;;
2023/01/10 15:24:25;;;;;;;3;2.1;;;;;;;4.73;77.72363;943.1403;;;;
2023/01/10 15:26:53;;;;;;;3.6;2.5;;;;;;;4.71;78.04688;943.1364;;;;
2023/01/10 15:29:19;;;;;;;5.2;2.8;;;;;;;4.65;78.93652;943.1922;;;;
2023/01/10 15:31:44;;;;;;;4.5;2;;;;;;;4.57;79.03516;943.1864;;;;
2023/01/10 15:34:11;;;;;;;3;1.7;;;;;;;4.4;79.24902;943.14;;;;
2023/01/10 15:36:36;;;;;;;1.9;1.4;;;;;;;4.21;79.74512;943.1694;;;;
2023/01/10 15:39:01;;;;;;;2.6;1.7;;;;;;;3.9;80.90137;943.071;;;;
2023/01/10 15:41:28;;;;;;;3.5;1.8;;;;;;;3.68;82.00488;943.1083;;;;
2023/01/10 15:43:54;;;;;;;1.4;1.3;;;;;;;3.65;81.96582;943.0964;;;;
2023/01/10 15:46:19;;;;;;;2.7;1.9;;;;;;;3.7;82.19922;943.0848;;;;
2023/01/10 15:48:44;;;;;;;7.8;4.4;;;;;;;3.53;83.8623;943.0834;;;;
2023/01/10 15:51:09;;;;;;;7.5;4.2;;;;;;;3.49;85.20508;943.0853;;;;
2023/01/10 15:53:35;;;;;;;4.5;2.6;;;;;;;3.56;84.54297;943.0591;;;;
2023/01/10 15:56:00;;;;;;;3.7;2.2;;;;;;;3.46;83.89258;943.0514;;;;
2023/01/10 15:58:26;;;;;;;3.8;2;;;;;;;3.55;83.45215;943.027;;;;
2023/01/10 16:00:51;;;;;;;3.7;2.1;;;;;;;3.58;82.68164;942.9922;;;;
2023/01/10 16:03:19;;;;;;;3.1;2;;;;;;;3.62;82.34082;943.0153;;;;
2023/01/10 16:05:44;;;;;;;7;3.7;;;;;;;3.63;82.39844;943.0128;;;;
2023/01/10 16:08:11;;;;;;;20.2;12.4;;;;;;;3.54;82.86621;943.0305;;;;
2023/01/10 16:10:37;;;;;;;22.6;15;;;;;;;3.41;83.52441;942.965;;;;
2023/01/10 16:15:27;;;;;;;12;7.5;;;;;;;3.39;83.90332;943.0302;;;;